sensor_id;sensor_type;location;lat;lon;timestamp;pressure;altitude;pressure_sealevel;temperature;humidity
64610;BME280;51019;46.090;6.350;2023-04-26T00:00:26;96566.03;;;3.23;100.00
64610;BME280;51019;46.090;6.350;2023-04-26T00:02:57;96558.47;;;3.06;100.00
64610;BME280;51019;46.090;6.350;2023-04-26T00:05:28;96570.47;;;3.21;100.00
64610;BME280;51019;46.090;6.350;2023-04-26T00:07:56;96558.31;;;3.09;100.00
64610;BME280;51019;46.090;6.350;2023-04-26T00:10:23;96564.38;;;3.22;100.00
64610;BME280;51019;46.090;6.350;2023-04-26T00:12:51;96564.56;;;3.19;100.00
64610;BME280;51019;46.090;6.350;2023-04-26T00:15:20;96568.16;;;3.17;100.00
64610;BME280;51019;46.090;6.350;2023-04-26T00:17:47;96568.16;;;3.17;100.00
64610;BME280;51019;46.090;6.350;2023-04-26T00:20:15;96561.81;;;3.08;100.00
64610;BME280;51019;46.090;6.350;2023-04-26T00:22:48;96566.81;;;3.11;100.00
64610;BME280;51019;46.090;6.350;2023-04-26T00:25:16;96566.53;;;3.16;100.00
64610;BME280;51019;46.090;6.350;2023-04-26T00:27:44;96585.22;;;3.07;100.00
64610;BME280;51019;46.090;6.350;2023-04-26T00:30:13;96573.19;;;3.06;100.00
64610;BME280;51019;46.090;6.350;2023-04-26T00:32:41;96575.81;;;2.91;100.00
64610;BME280;51019;46.090;6.350;2023-04-26T00:35:12;96575.09;;;2.75;100.00
64610;BME280;51019;46.090;6.350;2023-04-26T00:37:39;96575.28;;;2.58;100.00
64610;BME280;51019;46.090;6.350;2023-04-26T00:40:10;96584.16;;;2.68;100.00
64610;BME280;51019;46.090;6.350;2023-04-26T00:42:38;96576.41;;;2.54;100.00
64610;BME280;51019;46.090;6.350;2023-04-26T00:45:07;96562.53;;;2.41;100.00
64610;BME280;51019;46.090;6.350;2023-04-26T00:47:35;96547.09;;;2.39;100.00
64610;BME280;51019;46.090;6.350;2023-04-26T00:50:03;96583.91;;;2.59;100.00
64610;BME280;51019;46.090;6.350;2023-04-26T00:52:30;96578.25;;;2.52;100.00
64610;BME280;51019;46.090;6.350;2023-04-26T00:54:59;96559.78;;;2.58;100.00
64610;BME280;51019;46.090;6.350;2023-04-26T00:57:28;96567.31;;;2.61;100.00
64610;BME280;51019;46.090;6.350;2023-04-26T00:59:56;96571.41;;;2.51;100.00
64610;BME280;51019;46.090;6.350;2023-04-26T01:02:25;96571.66;;;2.61;100.00
64610;BME280;51019;46.090;6.350;2023-04-26T01:04:52;96575.28;;;2.58;100.00
64610;BME280;51019;46.090;6.350;2023-04-26T01:07:20;96566.59;;;2.45;100.00
64610;BME280;51019;46.090;6.350;2023-04-26T01:09:48;96566.97;;;2.39;100.00
64610;BME280;51019;46.090;6.350;2023-04-26T01:12:16;96560.78;;;2.41;100.00
64610;BME280;51019;46.090;6.350;2023-04-26T01:14:46;96560.69;;;2.43;100.00
64610;BME280;51019;46.090;6.350;2023-04-26T01:17:14;96571.50;;;2.35;100.00
64610;BME280;51019;46.090;6.350;2023-04-26T01:19:46;96568.34;;;2.44;100.00
64610;BME280;51019;46.090;6.350;2023-04-26T01:22:13;96558.56;;;2.21;100.00
64610;BME280;51019;46.090;6.350;2023-04-26T01:24:45;96571.41;;;2.23;100.00
64610;BME280;51019;46.090;6.350;2023-04-26T01:27:13;96565.66;;;2.17;100.00
64610;BME280;51019;46.090;6.350;2023-04-26T01:29:41;96562.69;;;2.09;100.00
64610;BME280;51019;46.090;6.350;2023-04-26T01:32:10;96568.69;;;2.10;100.00
64610;BME280;51019;46.090;6.350;2023-04-26T01:34:38;96577.81;;;2.15;100.00
64610;BME280;51019;46.090;6.350;2023-04-26T01:37:06;96571.06;;;1.99;100.00
64610;BME280;51019;46.090;6.350;2023-04-26T01:39:34;96558.97;;;1.99;100.00
64610;BME280;51019;46.090;6.350;2023-04-26T01:42:05;96584.53;;;2.04;100.00
64610;BME280;51019;46.090;6.350;2023-04-26T01:44:33;96578.81;;;1.99;100.00
64610;BME280;51019;46.090;6.350;2023-04-26T01:47:00;96583.63;;;2.05;100.00
64610;BME280;51019;46.090;6.350;2023-04-26T01:49:29;96583.72;;;2.03;100.00
64610;BME280;51019;46.090;6.350;2023-04-26T01:51:57;96561.41;;;1.72;100.00
64610;BME280;51019;46.090;6.350;2023-04-26T01:54:25;96571.41;;;1.78;100.00
64610;BME280;51019;46.090;6.350;2023-04-26T01:56:53;96587.03;;;1.91;100.00
64610;BME280;51019;46.090;6.350;2023-04-26T01:59:22;96573.38;;;1.89;100.00
64610;BME280;51019;46.090;6.350;2023-04-26T02:01:51;96579.13;;;2.08;100.00
64610;BME280;51019;46.090;6.350;2023-04-26T02:04:19;96564.28;;;1.82;100.00
64610;BME280;51019;46.090;6.350;2023-04-26T02:06:47;96570.19;;;1.84;100.00
64610;BME280;51019;46.090;6.350;2023-04-26T02:09:14;96578.41;;;1.76;100.00
64610;BME280;51019;46.090;6.350;2023-04-26T02:11:42;96564.06;;;1.71;100.00
64610;BME280;51019;46.090;6.350;2023-04-26T02:14:09;96573.94;;;1.64;100.00
64610;BME280;51019;46.090;6.350;2023-04-26T02:16:40;96578.19;;;1.65;100.00
64610;BME280;51019;46.090;6.350;2023-04-26T02:19:08;96583.69;;;1.59;100.00
64610;BME280;51019;46.090;6.350;2023-04-26T02:21:49;96559.28;;;1.49;100.00
64610;BME280;51019;46.090;6.350;2023-04-26T02:24:17;96555.25;;;1.45;100.00
64610;BME280;51019;46.090;6.350;2023-04-26T02:26:45;96581.00;;;1.61;100.00
64610;BME280;51019;46.090;6.350;2023-04-26T02:29:13;96579.94;;;1.65;100.00
64610;BME280;51019;46.090;6.350;2023-04-26T02:31:43;96580.19;;;1.60;100.00
64610;BME280;51019;46.090;6.350;2023-04-26T02:34:13;96565.47;;;1.47;100.00
64610;BME280;51019;46.090;6.350;2023-04-26T02:36:41;96570.13;;;1.56;100.00
64610;BME280;51019;46.090;6.350;2023-04-26T02:39:08;96574.25;;;1.58;100.00
64610;BME280;51019;46.090;6.350;2023-04-26T02:41:36;96578.19;;;1.50;100.00
64610;BME280;51019;46.090;6.350;2023-04-26T02:44:05;96574.72;;;1.51;100.00
64610;BME280;51019;46.090;6.350;2023-04-26T02:46:34;96573.81;;;1.36;100.00
64610;BME280;51019;46.090;6.350;2023-04-26T02:49:04;96564.72;;;1.44;100.00
64610;BME280;51019;46.090;6.350;2023-04-26T02:51:32;96557.16;;;1.41;100.00
64610;BME280;51019;46.090;6.350;2023-04-26T02:54:00;96563.94;;;1.58;100.00
64610;BME280;51019;46.090;6.350;2023-04-26T02:56:28;96563.38;;;1.37;100.00
64610;BME280;51019;46.090;6.350;2023-04-26T02:58:56;96552.44;;;1.34;100.00
64610;BME280;51019;46.090;6.350;2023-04-26T03:01:24;96569.97;;;1.43;100.00
64610;BME280;51019;46.090;6.350;2023-04-26T03:03:51;96552.03;;;1.10;100.00
64610;BME280;51019;46.090;6.350;2023-04-26T03:06:20;96559.34;;;1.18;100.00
64610;BME280;51019;46.090;6.350;2023-04-26T03:08:48;96566.19;;;1.19;100.00
64610;BME280;51019;46.090;6.350;2023-04-26T03:11:20;96560.78;;;1.23;100.00
64610;BME280;51019;46.090;6.350;2023-04-26T03:13:47;96564.16;;;1.39;100.00
64610;BME280;51019;46.090;6.350;2023-04-26T03:16:17;96568.16;;;1.29;100.00
64610;BME280;51019;46.090;6.350;2023-04-26T03:18:46;96568.50;;;1.23;100.00
64610;BME280;51019;46.090;6.350;2023-04-26T03:21:16;96557.72;;;1.01;100.00
64610;BME280;51019;46.090;6.350;2023-04-26T03:23:46;96562.84;;;1.17;100.00
64610;BME280;51019;46.090;6.350;2023-04-26T03:26:14;96565.19;;;1.21;100.00
64610;BME280;51019;46.090;6.350;2023-04-26T03:28:43;96574.66;;;1.21;100.00
64610;BME280;51019;46.090;6.350;2023-04-26T03:31:11;96544.69;;;1.02;100.00
64610;BME280;51019;46.090;6.350;2023-04-26T03:33:39;96561.38;;;1.13;100.00
64610;BME280;51019;46.090;6.350;2023-04-26T03:36:07;96556.44;;;1.08;100.00
64610;BME280;51019;46.090;6.350;2023-04-26T03:38:37;96567.31;;;1.13;100.00
64610;BME280;51019;46.090;6.350;2023-04-26T03:41:09;96575.91;;;1.14;100.00
64610;BME280;51019;46.090;6.350;2023-04-26T03:43:38;96572.91;;;1.05;100.00
64610;BME280;51019;46.090;6.350;2023-04-26T03:46:06;96573.69;;;1.23;100.00
64610;BME280;51019;46.090;6.350;2023-04-26T03:48:34;96574.25;;;0.97;100.00
64610;BME280;51019;46.090;6.350;2023-04-26T03:51:05;96577.41;;;1.02;100.00
64610;BME280;51019;46.090;6.350;2023-04-26T03:53:33;96579.41;;;0.65;100.00
64610;BME280;51019;46.090;6.350;2023-04-26T03:56:01;96560.81;;;0.59;100.00
64610;BME280;51019;46.090;6.350;2023-04-26T03:58:30;96563.41;;;0.59;100.00
64610;BME280;51019;46.090;6.350;2023-04-26T04:00:57;96562.75;;;0.71;100.00
64610;BME280;51019;46.090;6.350;2023-04-26T04:03:25;96566.59;;;0.64;100.00
64610;BME280;51019;46.090;6.350;2023-04-26T04:05:54;96561.59;;;0.77;100.00
64610;BME280;51019;46.090;6.350;2023-04-26T04:08:22;96518.72;;;0.43;100.00
64610;BME280;51019;46.090;6.350;2023-04-26T04:10:49;96562.19;;;0.82;100.00
64610;BME280;51019;46.090;6.350;2023-04-26T04:13:17;96559.59;;;0.82;100.00
64610;BME280;51019;46.090;6.350;2023-04-26T04:15:46;96565.41;;;0.69;100.00
64610;BME280;51019;46.090;6.350;2023-04-26T04:18:16;96569.34;;;0.77;100.00
64610;BME280;51019;46.090;6.350;2023-04-26T04:20:46;96572.75;;;0.77;100.00
64610;BME280;51019;46.090;6.350;2023-04-26T04:23:14;96558.00;;;0.63;100.00
64610;BME280;51019;46.090;6.350;2023-04-26T04:25:41;96575.47;;;0.58;100.00
64610;BME280;51019;46.090;6.350;2023-04-26T04:28:10;96562.22;;;0.49;100.00
64610;BME280;51019;46.090;6.350;2023-04-26T04:30:38;96576.47;;;0.56;100.00
64610;BME280;51019;46.090;6.350;2023-04-26T04:33:07;96580.25;;;0.66;100.00
64610;BME280;51019;46.090;6.350;2023-04-26T04:35:35;96582.78;;;0.50;100.00
64610;BME280;51019;46.090;6.350;2023-04-26T04:38:02;96579.06;;;0.71;100.00
64610;BME280;51019;46.090;6.350;2023-04-26T04:40:30;96565.16;;;0.58;100.00
64610;BME280;51019;46.090;6.350;2023-04-26T04:42:58;96573.81;;;0.73;100.00
64610;BME280;51019;46.090;6.350;2023-04-26T04:45:28;96571.41;;;0.70;100.00
64610;BME280;51019;46.090;6.350;2023-04-26T04:47:56;96582.06;;;0.64;100.00
64610;BME280;51019;46.090;6.350;2023-04-26T04:50:26;96563.06;;;0.49;100.00
64610;BME280;51019;46.090;6.350;2023-04-26T04:52:55;96580.88;;;0.54;100.00
64610;BME280;51019;46.090;6.350;2023-04-26T04:55:22;96583.19;;;0.58;100.00
64610;BME280;51019;46.090;6.350;2023-04-26T04:57:50;96589.44;;;0.54;100.00
64610;BME280;51019;46.090;6.350;2023-04-26T05:00:18;96568.44;;;0.29;100.00
64610;BME280;51019;46.090;6.350;2023-04-26T05:02:49;96590.44;;;0.52;100.00
64610;BME280;51019;46.090;6.350;2023-04-26T05:05:16;96581.72;;;0.54;100.00
64610;BME280;51019;46.090;6.350;2023-04-26T05:07:46;96592.09;;;0.53;100.00
64610;BME280;51019;46.090;6.350;2023-04-26T05:10:13;96567.59;;;0.28;100.00
64610;BME280;51019;46.090;6.350;2023-04-26T05:12:43;96600.31;;;0.44;100.00
64610;BME280;51019;46.090;6.350;2023-04-26T05:15:11;96600.56;;;0.39;100.00
64610;BME280;51019;46.090;6.350;2023-04-26T05:17:38;96610.09;;;0.54;100.00
64610;BME280;51019;46.090;6.350;2023-04-26T05:20:09;96602.91;;;0.44;100.00
64610;BME280;51019;46.090;6.350;2023-04-26T05:22:37;96581.09;;;0.49;100.00
64610;BME280;51019;46.090;6.350;2023-04-26T05:25:09;96609.34;;;0.68;100.00
64610;BME280;51019;46.090;6.350;2023-04-26T05:27:37;96611.16;;;0.99;100.00
64610;BME280;51019;46.090;6.350;2023-04-26T05:30:07;96613.31;;;1.22;100.00
64610;BME280;51019;46.090;6.350;2023-04-26T05:32:35;96603.88;;;1.53;100.00
64610;BME280;51019;46.090;6.350;2023-04-26T05:35:03;96615.63;;;1.88;100.00
64610;BME280;51019;46.090;6.350;2023-04-26T05:37:30;96602.25;;;1.96;100.00
64610;BME280;51019;46.090;6.350;2023-04-26T05:39:59;96612.78;;;2.23;100.00
64610;BME280;51019;46.090;6.350;2023-04-26T05:42:28;96631.81;;;2.50;100.00
64610;BME280;51019;46.090;6.350;2023-04-26T05:44:56;96614.00;;;2.45;100.00
64610;BME280;51019;46.090;6.350;2023-04-26T05:47:25;96626.97;;;2.60;100.00
64610;BME280;51019;46.090;6.350;2023-04-26T05:49:52;96651.63;;;2.65;100.00
64610;BME280;51019;46.090;6.350;2023-04-26T05:52:21;96653.66;;;2.88;100.00
64610;BME280;51019;46.090;6.350;2023-04-26T05:54:49;96634.72;;;3.02;100.00
64610;BME280;51019;46.090;6.350;2023-04-26T05:57:16;96636.34;;;3.17;100.00
64610;BME280;51019;46.090;6.350;2023-04-26T05:59:46;96640.47;;;3.34;100.00
64610;BME280;51019;46.090;6.350;2023-04-26T06:02:14;96643.44;;;3.69;100.00
64610;BME280;51019;46.090;6.350;2023-04-26T06:04:41;96595.72;;;3.59;100.00
64610;BME280;51019;46.090;6.350;2023-04-26T06:07:09;96634.56;;;4.13;100.00
64610;BME280;51019;46.090;6.350;2023-04-26T06:09:37;96638.22;;;4.35;100.00
64610;BME280;51019;46.090;6.350;2023-04-26T06:12:06;96629.00;;;4.69;100.00
64610;BME280;51019;46.090;6.350;2023-04-26T06:14:33;96627.50;;;5.16;100.00
64610;BME280;51019;46.090;6.350;2023-04-26T06:17:03;96607.91;;;5.36;100.00
64610;BME280;51019;46.090;6.350;2023-04-26T06:19:31;96628.91;;;5.69;100.00
64610;BME280;51019;46.090;6.350;2023-04-26T06:21:59;96628.00;;;5.81;100.00
64610;BME280;51019;46.090;6.350;2023-04-26T06:24:27;96629.16;;;5.54;100.00
64610;BME280;51019;46.090;6.350;2023-04-26T06:26:55;96621.66;;;5.86;100.00
64610;BME280;51019;46.090;6.350;2023-04-26T06:29:23;96626.81;;;6.33;100.00
64610;BME280;51019;46.090;6.350;2023-04-26T06:31:51;96614.66;;;6.45;100.00
64610;BME280;51019;46.090;6.350;2023-04-26T06:34:22;96606.63;;;6.48;100.00
64610;BME280;51019;46.090;6.350;2023-04-26T06:36:49;96618.38;;;6.65;100.00
64610;BME280;51019;46.090;6.350;2023-04-26T06:39:17;96615.41;;;6.69;100.00
64610;BME280;51019;46.090;6.350;2023-04-26T06:41:45;96591.75;;;6.83;100.00
64610;BME280;51019;46.090;6.350;2023-04-26T06:44:13;96607.72;;;7.12;100.00
64610;BME280;51019;46.090;6.350;2023-04-26T06:46:41;96613.63;;;7.37;100.00
64610;BME280;51019;46.090;6.350;2023-04-26T06:49:09;96627.97;;;7.42;100.00
64610;BME280;51019;46.090;6.350;2023-04-26T06:51:39;96615.16;;;7.39;100.00
64610;BME280;51019;46.090;6.350;2023-04-26T06:54:07;96619.06;;;7.34;100.00
64610;BME280;51019;46.090;6.350;2023-04-26T06:56:34;96597.19;;;7.14;100.00
64610;BME280;51019;46.090;6.350;2023-04-26T06:59:03;96611.25;;;7.45;100.00
64610;BME280;51019;46.090;6.350;2023-04-26T07:01:32;96602.16;;;7.71;100.00
64610;BME280;51019;46.090;6.350;2023-04-26T07:04:01;96614.28;;;8.36;100.00
64610;BME280;51019;46.090;6.350;2023-04-26T07:06:29;96604.94;;;7.90;100.00
64610;BME280;51019;46.090;6.350;2023-04-26T07:08:59;96595.75;;;8.39;100.00
64610;BME280;51019;46.090;6.350;2023-04-26T07:11:27;96589.69;;;8.59;100.00
64610;BME280;51019;46.090;6.350;2023-04-26T07:13:54;96608.09;;;8.79;100.00
64610;BME280;51019;46.090;6.350;2023-04-26T07:16:22;96603.91;;;8.66;100.00
64610;BME280;51019;46.090;6.350;2023-04-26T07:18:56;96595.16;;;8.77;100.00
64610;BME280;51019;46.090;6.350;2023-04-26T07:21:24;96594.31;;;8.77;100.00
64610;BME280;51019;46.090;6.350;2023-04-26T07:23:53;96587.78;;;8.92;100.00
64610;BME280;51019;46.090;6.350;2023-04-26T07:26:23;96551.72;;;8.55;100.00
64610;BME280;51019;46.090;6.350;2023-04-26T07:28:57;96583.78;;;8.88;100.00
64610;BME280;51019;46.090;6.350;2023-04-26T07:31:28;96579.47;;;9.57;100.00
64610;BME280;51019;46.090;6.350;2023-04-26T07:33:56;96580.91;;;10.19;100.00
64610;BME280;51019;46.090;6.350;2023-04-26T07:36:24;96576.34;;;10.02;100.00
64610;BME280;51019;46.090;6.350;2023-04-26T07:38:56;96579.13;;;8.91;100.00
64610;BME280;51019;46.090;6.350;2023-04-26T07:41:26;96563.19;;;9.34;100.00
64610;BME280;51019;46.090;6.350;2023-04-26T07:44:01;96573.00;;;9.61;100.00
64610;BME280;51019;46.090;6.350;2023-04-26T07:46:28;96550.44;;;9.99;97.92
64610;BME280;51019;46.090;6.350;2023-04-26T07:48:56;96566.78;;;9.62;96.47
64610;BME280;51019;46.090;6.350;2023-04-26T07:51:24;96565.88;;;9.92;92.69
64610;BME280;51019;46.090;6.350;2023-04-26T07:53:51;96556.34;;;10.10;91.03
64610;BME280;51019;46.090;6.350;2023-04-26T07:56:20;96550.63;;;10.63;91.19
64610;BME280;51019;46.090;6.350;2023-04-26T07:58:50;96567.56;;;11.15;92.23
64610;BME280;51019;46.090;6.350;2023-04-26T08:01:18;96566.69;;;11.24;89.85
64610;BME280;51019;46.090;6.350;2023-04-26T08:03:46;96568.69;;;11.13;89.80
64610;BME280;51019;46.090;6.350;2023-04-26T08:06:14;96560.50;;;10.88;90.46
64610;BME280;51019;46.090;6.350;2023-04-26T08:08:42;96563.72;;;11.10;90.41
64610;BME280;51019;46.090;6.350;2023-04-26T08:11:13;96554.88;;;11.11;93.02
64610;BME280;51019;46.090;6.350;2023-04-26T08:13:41;96524.69;;;11.70;89.74
64610;BME280;51019;46.090;6.350;2023-04-26T08:16:11;96553.28;;;12.08;87.43
64610;BME280;51019;46.090;6.350;2023-04-26T08:18:39;96541.81;;;12.09;82.31
64610;BME280;51019;46.090;6.350;2023-04-26T08:21:06;96552.56;;;12.16;74.51
64610;BME280;51019;46.090;6.350;2023-04-26T08:23:34;96550.16;;;11.87;72.94
64610;BME280;51019;46.090;6.350;2023-04-26T08:26:03;96553.53;;;12.15;69.09
64610;BME280;51019;46.090;6.350;2023-04-26T08:28:30;96528.16;;;12.23;65.64
64610;BME280;51019;46.090;6.350;2023-04-26T08:30:58;96550.03;;;12.50;65.32
64610;BME280;51019;46.090;6.350;2023-04-26T08:33:30;96547.75;;;12.55;67.59
64610;BME280;51019;46.090;6.350;2023-04-26T08:35:58;96531.72;;;12.66;64.62
64610;BME280;51019;46.090;6.350;2023-04-26T08:38:27;96540.50;;;12.49;63.21
64610;BME280;51019;46.090;6.350;2023-04-26T08:40:58;96543.72;;;12.68;62.60
64610;BME280;51019;46.090;6.350;2023-04-26T08:43:27;96542.72;;;12.61;68.00
64610;BME280;51019;46.090;6.350;2023-04-26T08:45:54;96545.69;;;12.92;66.35
64610;BME280;51019;46.090;6.350;2023-04-26T08:48:25;96542.72;;;12.61;68.89
64610;BME280;51019;46.090;6.350;2023-04-26T08:50:59;96549.81;;;12.43;65.82
64610;BME280;51019;46.090;6.350;2023-04-26T08:53:28;96548.31;;;12.92;68.86
64610;BME280;51019;46.090;6.350;2023-04-26T08:56:00;96545.25;;;13.05;64.40
64610;BME280;51019;46.090;6.350;2023-04-26T08:58:28;96540.22;;;13.54;68.09
64610;BME280;51019;46.090;6.350;2023-04-26T09:00:58;96538.72;;;13.59;61.61
64610;BME280;51019;46.090;6.350;2023-04-26T09:03:28;96541.94;;;13.29;61.17
64610;BME280;51019;46.090;6.350;2023-04-26T09:05:58;96547.97;;;13.63;59.46
64610;BME280;51019;46.090;6.350;2023-04-26T09:08:27;96546.63;;;13.59;59.91
64610;BME280;51019;46.090;6.350;2023-04-26T09:11:00;96540.59;;;13.91;60.70
64610;BME280;51019;46.090;6.350;2023-04-26T09:13:31;96545.75;;;14.09;59.92
64610;BME280;51019;46.090;6.350;2023-04-26T09:15:59;96542.13;;;14.10;57.86
64610;BME280;51019;46.090;6.350;2023-04-26T09:18:27;96541.28;;;14.17;57.52
64610;BME280;51019;46.090;6.350;2023-04-26T09:21:05;96536.31;;;14.23;58.54
64610;BME280;51019;46.090;6.350;2023-04-26T09:23:34;96517.06;;;14.06;57.99
64610;BME280;51019;46.090;6.350;2023-04-26T09:26:18;96550.50;;;14.38;58.88
64610;BME280;51019;46.090;6.350;2023-04-26T09:28:46;96545.06;;;14.07;56.70
64610;BME280;51019;46.090;6.350;2023-04-26T09:31:34;96549.59;;;15.02;55.14
64610;BME280;51019;46.090;6.350;2023-04-26T09:34:03;96545.47;;;15.47;52.81
64610;BME280;51019;46.090;6.350;2023-04-26T09:36:45;96539.81;;;15.19;55.00
64610;BME280;51019;46.090;6.350;2023-04-26T09:39:14;96531.13;;;15.10;55.29
64610;BME280;51019;46.090;6.350;2023-04-26T09:41:44;96524.16;;;15.87;58.63
64610;BME280;51019;46.090;6.350;2023-04-26T09:44:21;96523.59;;;15.30;55.80
64610;BME280;51019;46.090;6.350;2023-04-26T09:47:00;96519.78;;;15.72;53.52
64610;BME280;51019;46.090;6.350;2023-04-26T09:49:31;96517.63;;;15.98;52.62
64610;BME280;51019;46.090;6.350;2023-04-26T09:52:05;96514.63;;;15.78;53.70
64610;BME280;51019;46.090;6.350;2023-04-26T09:54:42;96513.41;;;15.89;53.40
64610;BME280;51019;46.090;6.350;2023-04-26T09:57:10;96512.53;;;15.35;54.78
64610;BME280;51019;46.090;6.350;2023-04-26T09:59:42;96504.06;;;15.78;55.23
64610;BME280;51019;46.090;6.350;2023-04-26T10:02:13;96506.53;;;16.03;48.81
64610;BME280;51019;46.090;6.350;2023-04-26T10:04:44;96470.34;;;15.80;52.77
64610;BME280;51019;46.090;6.350;2023-04-26T10:07:16;96494.16;;;16.55;56.15
64610;BME280;51019;46.090;6.350;2023-04-26T10:09:46;96499.41;;;15.80;54.42
64610;BME280;51019;46.090;6.350;2023-04-26T10:12:14;96503.91;;;16.40;51.75
64610;BME280;51019;46.090;6.350;2023-04-26T10:14:42;96501.63;;;17.04;50.18
64610;BME280;51019;46.090;6.350;2023-04-26T10:17:12;96500.91;;;16.81;50.66
64610;BME280;51019;46.090;6.350;2023-04-26T10:19:41;96496.97;;;16.91;48.33
64610;BME280;51019;46.090;6.350;2023-04-26T10:22:16;96496.00;;;17.28;48.97
64610;BME280;51019;46.090;6.350;2023-04-26T10:24:45;96486.41;;;17.27;50.87
64610;BME280;51019;46.090;6.350;2023-04-26T10:27:15;96486.19;;;17.08;49.23
64610;BME280;51019;46.090;6.350;2023-04-26T10:30:05;96481.63;;;17.52;49.02
64610;BME280;51019;46.090;6.350;2023-04-26T10:36:13;96465.63;;;17.60;47.62
64610;BME280;51019;46.090;6.350;2023-04-26T10:39:18;96473.44;;;18.04;50.52
64610;BME280;51019;46.090;6.350;2023-04-26T10:41:47;96459.69;;;17.94;46.84
64610;BME280;51019;46.090;6.350;2023-04-26T10:44:36;96462.69;;;18.40;43.37
64610;BME280;51019;46.090;6.350;2023-04-26T10:47:05;96464.88;;;18.30;46.50
64610;BME280;51019;46.090;6.350;2023-04-26T10:49:43;96460.88;;;18.62;44.65
64610;BME280;51019;46.090;6.350;2023-04-26T10:52:14;96456.53;;;18.89;44.63
64610;BME280;51019;46.090;6.350;2023-04-26T10:55:00;96462.47;;;18.98;42.62
64610;BME280;51019;46.090;6.350;2023-04-26T10:57:50;96458.53;;;18.80;43.68
64610;BME280;51019;46.090;6.350;2023-04-26T11:00:28;96452.53;;;18.44;42.60
64610;BME280;51019;46.090;6.350;2023-04-26T11:02:58;96450.91;;;19.05;43.67
64610;BME280;51019;46.090;6.350;2023-04-26T11:05:50;96434.84;;;19.33;43.47
64610;BME280;51019;46.090;6.350;2023-04-26T11:08:20;96452.94;;;19.10;43.28
64610;BME280;51019;46.090;6.350;2023-04-26T11:10:56;96442.97;;;19.73;42.50
64610;BME280;51019;46.090;6.350;2023-04-26T11:13:24;96444.97;;;19.57;41.21
64610;BME280;51019;46.090;6.350;2023-04-26T11:15:53;96446.47;;;19.26;39.41
64610;BME280;51019;46.090;6.350;2023-04-26T11:18:23;96444.63;;;20.00;38.08
64610;BME280;51019;46.090;6.350;2023-04-26T11:20:51;96432.75;;;19.76;42.50
64610;BME280;51019;46.090;6.350;2023-04-26T11:23:21;96422.09;;;19.63;39.90
64610;BME280;51019;46.090;6.350;2023-04-26T11:25:49;96423.56;;;20.31;38.93
64610;BME280;51019;46.090;6.350;2023-04-26T11:28:19;96427.63;;;19.62;42.85
64610;BME280;51019;46.090;6.350;2023-04-26T11:30:48;96396.19;;;19.24;41.71
64610;BME280;51019;46.090;6.350;2023-04-26T11:33:18;96415.97;;;19.69;40.11
64610;BME280;51019;46.090;6.350;2023-04-26T11:35:47;96420.72;;;20.13;41.85
64610;BME280;51019;46.090;6.350;2023-04-26T11:38:16;96419.25;;;19.91;37.57
64610;BME280;51019;46.090;6.350;2023-04-26T11:40:54;96414.06;;;20.88;37.12
64610;BME280;51019;46.090;6.350;2023-04-26T11:43:33;96412.66;;;20.79;38.03
64610;BME280;51019;46.090;6.350;2023-04-26T11:46:02;96375.50;;;19.93;39.04
64610;BME280;51019;46.090;6.350;2023-04-26T11:48:32;96400.88;;;19.96;40.50
64610;BME280;51019;46.090;6.350;2023-04-26T11:51:02;96404.09;;;20.71;37.61
64610;BME280;51019;46.090;6.350;2023-04-26T11:53:37;96381.16;;;20.76;34.60
64610;BME280;51019;46.090;6.350;2023-04-26T11:56:13;96393.59;;;20.82;37.60
64610;BME280;51019;46.090;6.350;2023-04-26T11:58:46;96388.16;;;20.44;38.53
64610;BME280;51019;46.090;6.350;2023-04-26T12:01:23;96391.81;;;20.56;35.83
64610;BME280;51019;46.090;6.350;2023-04-26T12:03:52;96386.91;;;20.60;38.66
64610;BME280;51019;46.090;6.350;2023-04-26T12:06:24;96384.00;;;20.68;38.60
64610;BME280;51019;46.090;6.350;2023-04-26T12:08:53;96383.28;;;21.06;38.31
64610;BME280;51019;46.090;6.350;2023-04-26T12:11:22;96390.16;;;20.69;38.26
64610;BME280;51019;46.090;6.350;2023-04-26T12:13:54;96393.88;;;20.61;38.55
64610;BME280;51019;46.090;6.350;2023-04-26T12:16:26;96387.66;;;20.87;37.27
64610;BME280;51019;46.090;6.350;2023-04-26T12:18:54;96390.69;;;20.90;34.76
64610;BME280;51019;46.090;6.350;2023-04-26T12:21:24;96390.41;;;21.12;37.09
64610;BME280;51019;46.090;6.350;2023-04-26T12:23:53;96382.78;;;21.28;35.59
64610;BME280;51019;46.090;6.350;2023-04-26T12:26:21;96373.22;;;21.21;37.76
64610;BME280;51019;46.090;6.350;2023-04-26T12:28:48;96371.34;;;21.15;37.23
64610;BME280;51019;46.090;6.350;2023-04-26T12:31:17;96334.56;;;20.01;39.31
64610;BME280;51019;46.090;6.350;2023-04-26T12:33:45;96393.69;;;19.77;40.12
64610;BME280;51019;46.090;6.350;2023-04-26T12:36:13;96380.59;;;20.02;38.64
64610;BME280;51019;46.090;6.350;2023-04-26T12:38:42;96388.59;;;20.08;38.58
64610;BME280;51019;46.090;6.350;2023-04-26T12:41:09;96393.16;;;20.92;37.67
64610;BME280;51019;46.090;6.350;2023-04-26T12:43:38;96393.66;;;20.62;35.80
64610;BME280;51019;46.090;6.350;2023-04-26T12:46:06;96395.56;;;21.89;32.60
64610;BME280;51019;46.090;6.350;2023-04-26T12:48:38;96389.06;;;22.10;36.51
64610;BME280;51019;46.090;6.350;2023-04-26T12:51:05;96386.16;;;21.80;34.05
64610;BME280;51019;46.090;6.350;2023-04-26T12:53:34;96389.97;;;21.91;33.15
64610;BME280;51019;46.090;6.350;2023-04-26T12:56:03;96392.31;;;22.98;32.15
64610;BME280;51019;46.090;6.350;2023-04-26T12:58:31;96383.66;;;22.60;33.97
64610;BME280;51019;46.090;6.350;2023-04-26T13:01:01;96381.25;;;22.08;28.41
64610;BME280;51019;46.090;6.350;2023-04-26T13:03:30;96355.59;;;22.32;28.48
64610;BME280;51019;46.090;6.350;2023-04-26T13:06:00;96375.81;;;22.65;26.85
64610;BME280;51019;46.090;6.350;2023-04-26T13:08:28;96371.81;;;22.31;29.88
64610;BME280;51019;46.090;6.350;2023-04-26T13:10:55;96336.91;;;21.83;28.18
64610;BME280;51019;46.090;6.350;2023-04-26T13:13:27;96366.88;;;22.09;29.14
64610;BME280;51019;46.090;6.350;2023-04-26T13:15:55;96310.66;;;22.29;28.55